Time;durP1;ratioP1;P1;durP2;ratioP2;P2;SDS_P1;SDS_P2;PMS_P1;PMS_P2;Temp;Humidity;BMP_temperature;BMP_pressure;BME280_temperature;BME280_humidity;BME280_pressure;Samples;Min_cycle;Max_cycle;Signal;HPM_P1;HPM_P2
2024/02/02 00:00:28;;;;;;;0.60;0.50;;;6.10;99.90;;;;;;4986621;28;20076;-72
2024/02/02 00:02:54;;;;;;;5.65;0.60;;;6.10;99.90;;;;;;4991567;28;20119;-72
2024/02/02 00:05:20;;;;;;;4.90;1.23;;;6.10;99.90;;;;;;4976489;28;20037;-72
2024/02/02 00:07:45;;;;;;;12.63;1.83;;;6.20;99.90;;;;;;4995085;28;20046;-73
2024/02/02 00:10:11;;;;;;;1.42;0.55;;;6.20;99.90;;;;;;4993550;28;20085;-72
2024/02/02 00:12:37;;;;;;;2.67;0.70;;;6.20;99.90;;;;;;4994114;28;20053;-72
2024/02/02 00:15:03;;;;;;;11.07;1.70;;;6.20;99.90;;;;;;4993360;28;20476;-72
2024/02/02 00:17:32;;;;;;;9.43;1.17;;;6.20;99.90;;;;;;4977978;28;20045;-72
2024/02/02 00:19:58;;;;;;;6.60;0.75;;;6.20;99.90;;;;;;4975283;28;20073;-73
2024/02/02 00:22:24;;;;;;;3.30;0.95;;;6.20;99.90;;;;;;4987318;28;20164;-72
2024/02/02 00:24:51;;;;;;;3.60;0.93;;;6.20;99.90;;;;;;4991075;28;20042;-72
2024/02/02 00:27:18;;;;;;;2.28;0.70;;;6.20;99.90;;;;;;4991916;28;20065;-73
2024/02/02 00:29:45;;;;;;;3.45;0.65;;;6.20;99.90;;;;;;4983315;28;20050;-72
2024/02/02 00:32:15;;;;;;;2.63;0.70;;;6.20;99.90;;;;;;4992324;28;20456;-73
2024/02/02 00:34:41;;;;;;;7.78;1.42;;;6.20;99.90;;;;;;4993104;28;20132;-72
2024/02/02 00:37:07;;;;;;;6.28;0.55;;;6.20;99.90;;;;;;4992843;28;20068;-73
2024/02/02 00:39:33;;;;;;;1.65;0.95;;;6.30;99.90;;;;;;4975935;28;20034;-73
2024/02/02 00:41:59;;;;;;;7.75;0.63;;;6.30;99.90;;;;;;4994875;28;20038;-73
2024/02/02 00:44:25;;;;;;;2.92;0.52;;;6.30;99.90;;;;;;4992282;28;20057;-73
2024/02/02 00:46:50;;;;;;;2.30;1.05;;;6.30;99.90;;;;;;4983640;28;20045;-73
2024/02/02 00:49:16;;;;;;;7.50;0.80;;;6.30;99.90;;;;;;5000208;28;20410;-73
2024/02/02 00:51:42;;;;;;;8.02;0.82;;;6.30;99.90;;;;;;4991567;28;20131;-73
2024/02/02 00:54:08;;;;;;;1.70;0.52;;;6.20;99.90;;;;;;4991221;28;20042;-73
2024/02/02 00:56:34;;;;;;;1.40;0.43;;;6.30;99.90;;;;;;4990770;28;20113;-72
2024/02/02 00:59:00;;;;;;;7.97;1.48;;;6.20;99.90;;;;;;4984214;28;20167;-72
2024/02/02 01:01:25;;;;;;;7.32;1.15;;;6.20;99.90;;;;;;4982489;28;20038;-72
2024/02/02 01:03:51;;;;;;;4.10;0.65;;;6.20;99.90;;;;;;4989265;28;20046;-72
2024/02/02 01:06:17;;;;;;;1.13;0.25;;;6.20;99.90;;;;;;4978481;28;20037;-72
2024/02/02 01:08:43;;;;;;;5.75;0.63;;;6.20;99.90;;;;;;4993974;28;20117;-72
2024/02/02 01:11:08;;;;;;;5.72;0.98;;;6.20;99.90;;;;;;4992666;28;20123;-73
2024/02/02 01:13:34;;;;;;;4.55;1.00;;;6.20;99.90;;;;;;4993102;28;20033;-73
2024/02/02 01:16:00;;;;;;;5.28;1.25;;;6.20;99.90;;;;;;4990765;28;20045;-73
2024/02/02 01:18:25;;;;;;;20.50;1.13;;;6.20;99.90;;;;;;4990163;28;20505;-73
2024/02/02 01:20:51;;;;;;;2.95;0.93;;;6.20;99.90;;;;;;4988960;28;20030;-72
2024/02/02 01:23:17;;;;;;;1.17;0.52;;;6.30;99.90;;;;;;4992211;28;20041;-72
2024/02/02 01:25:42;;;;;;;4.90;0.68;;;6.20;99.90;;;;;;4990976;28;20045;-72
2024/02/02 01:28:08;;;;;;;2.42;0.65;;;6.20;99.90;;;;;;4990797;28;20053;-72
2024/02/02 01:30:34;;;;;;;6.75;0.95;;;6.20;99.90;;;;;;4989966;28;20049;-72
2024/02/02 01:33:00;;;;;;;2.38;0.90;;;6.20;99.90;;;;;;4989559;28;20460;-73
2024/02/02 01:35:26;;;;;;;1.17;0.60;;;6.20;99.90;;;;;;4974544;28;20073;-72
2024/02/02 01:37:52;;;;;;;4.15;1.25;;;6.20;99.90;;;;;;4986449;28;20411;-72
2024/02/02 01:40:19;;;;;;;3.92;1.65;;;6.20;99.90;;;;;;4991252;28;20120;-72
2024/02/02 01:42:45;;;;;;;5.85;0.88;;;6.20;99.90;;;;;;4989811;28;20124;-75
2024/02/02 01:45:11;;;;;;;6.05;1.17;;;6.20;99.90;;;;;;4976471;28;20120;-73
2024/02/02 01:47:37;;;;;;;10.77;1.02;;;6.20;99.90;;;;;;4990224;28;20042;-73
2024/02/02 01:50:03;;;;;;;1.90;0.47;;;6.20;99.90;;;;;;4991985;28;20494;-73
2024/02/02 01:52:30;;;;;;;4.38;1.15;;;6.20;99.90;;;;;;4975769;28;20038;-73
2024/02/02 01:54:56;;;;;;;2.30;1.10;;;6.20;99.90;;;;;;4979536;28;20544;-73
2024/02/02 01:57:22;;;;;;;5.25;0.80;;;6.20;99.90;;;;;;4974822;28;20034;-73
2024/02/02 01:59:48;;;;;;;5.55;1.27;;;6.20;99.90;;;;;;4984337;28;20104;-72
2024/02/02 02:02:14;;;;;;;2.88;1.17;;;6.20;99.90;;;;;;4990227;28;20046;-72
2024/02/02 02:04:40;;;;;;;5.75;1.15;;;6.20;99.90;;;;;;4979041;28;20042;-72
2024/02/02 02:07:07;;;;;;;5.40;1.25;;;6.30;99.90;;;;;;4988800;28;20042;-74
2024/02/02 02:09:33;;;;;;;1.92;0.50;;;6.20;99.90;;;;;;4989680;28;20141;-73
2024/02/02 02:12:02;;;;;;;4.38;0.95;;;6.30;99.90;;;;;;4992315;28;20056;-72
2024/02/02 02:14:29;;;;;;;6.95;1.30;;;6.30;99.90;;;;;;4991976;28;20351;-72
2024/02/02 02:16:55;;;;;;;2.03;0.90;;;6.30;99.90;;;;;;4990438;28;20046;-72
2024/02/02 02:19:21;;;;;;;5.47;0.40;;;6.30;99.90;;;;;;4992827;28;20065;-72
2024/02/02 02:21:47;;;;;;;7.72;0.80;;;6.30;99.90;;;;;;4990895;28;20037;-72
2024/02/02 02:24:12;;;;;;;0.82;0.60;;;6.30;99.90;;;;;;5004692;28;20128;-72
2024/02/02 02:26:40;;;;;;;1.33;0.70;;;6.30;99.90;;;;;;4984325;28;20046;-72
2024/02/02 02:29:06;;;;;;;4.68;1.77;;;6.30;99.90;;;;;;4988281;28;20339;-72
2024/02/02 02:31:32;;;;;;;3.55;1.38;;;6.30;99.90;;;;;;4978775;28;20124;-72
2024/02/02 02:33:58;;;;;;;3.55;1.15;;;6.30;99.90;;;;;;4983330;28;20460;-72
2024/02/02 02:36:24;;;;;;;7.20;1.05;;;6.40;99.90;;;;;;4991983;28;20402;-72
2024/02/02 02:38:51;;;;;;;4.75;1.27;;;6.30;99.90;;;;;;4992282;28;20049;-72
2024/02/02 02:41:16;;;;;;;1.90;1.23;;;6.30;99.90;;;;;;4992123;28;21470;-72
2024/02/02 02:43:42;;;;;;;3.75;1.23;;;6.40;99.90;;;;;;4988168;28;20116;-72
2024/02/02 02:46:08;;;;;;;7.00;1.02;;;6.40;99.90;;;;;;4983653;28;20045;-72
2024/02/02 02:48:34;;;;;;;5.78;1.00;;;6.40;99.90;;;;;;4974905;28;20065;-72
2024/02/02 02:51:00;;;;;;;7.05;1.83;;;6.40;99.90;;;;;;4990871;28;20073;-72
2024/02/02 02:53:26;;;;;;;2.60;1.23;;;6.40;99.90;;;;;;4991996;28;20410;-72
2024/02/02 02:55:51;;;;;;;1.95;1.23;;;6.40;99.90;;;;;;4990501;28;20052;-73
2024/02/02 02:58:18;;;;;;;2.75;1.25;;;6.40;99.90;;;;;;4988074;28;20042;-72
2024/02/02 03:00:44;;;;;;;5.35;1.10;;;6.40;99.90;;;;;;4991647;28;20049;-73
2024/02/02 03:03:10;;;;;;;7.15;1.73;;;6.30;99.90;;;;;;4989842;28;20100;-72
2024/02/02 03:05:37;;;;;;;1.38;0.57;;;6.40;99.90;;;;;;4991017;28;20370;-72
2024/02/02 03:08:05;;;;;;;7.35;1.40;;;6.40;99.90;;;;;;4988219;28;20049;-72
2024/02/02 03:10:31;;;;;;;13.40;2.25;;;6.40;99.90;;;;;;4991428;28;20085;-72
2024/02/02 03:12:57;;;;;;;5.75;1.48;;;6.40;99.90;;;;;;4997892;28;20532;-72
2024/02/02 03:15:23;;;;;;;1.25;1.15;;;6.40;99.90;;;;;;4989702;28;20486;-72
2024/02/02 03:17:49;;;;;;;1.73;1.02;;;6.40;99.90;;;;;;4998913;28;20036;-72
2024/02/02 03:20:15;;;;;;;4.68;1.58;;;6.40;99.90;;;;;;4974763;28;20124;-73
2024/02/02 03:22:41;;;;;;;3.25;1.08;;;6.40;99.90;;;;;;4973226;28;20125;-73
2024/02/02 03:25:08;;;;;;;1.20;0.85;;;6.40;99.90;;;;;;4988782;28;20069;-72
2024/02/02 03:27:34;;;;;;;13.93;1.35;;;6.40;99.90;;;;;;4989120;28;20116;-72
2024/02/02 03:30:00;;;;;;;3.03;0.68;;;6.40;99.90;;;;;;4988768;28;20033;-72
2024/02/02 03:32:26;;;;;;;2.90;1.17;;;6.40;99.90;;;;;;4990423;28;20113;-72
2024/02/02 03:34:51;;;;;;;9.20;1.45;;;6.40;99.90;;;;;;4989697;28;20096;-72
2024/02/02 03:37:19;;;;;;;1.30;0.80;;;6.40;99.90;;;;;;4990373;28;20375;-72
2024/02/02 03:39:48;;;;;;;4.30;1.17;;;6.40;99.90;;;;;;4970019;28;20101;-72
2024/02/02 03:42:14;;;;;;;12.32;1.30;;;6.40;99.90;;;;;;4992357;28;20445;-72
2024/02/02 03:44:39;;;;;;;3.53;0.88;;;6.40;99.90;;;;;;4993618;28;20121;-72
2024/02/02 03:47:05;;;;;;;2.83;0.85;;;6.40;99.90;;;;;;4974475;28;20038;-73
2024/02/02 03:49:34;;;;;;;9.70;1.65;;;6.40;99.90;;;;;;4985665;28;20460;-72
2024/02/02 03:52:00;;;;;;;1.70;0.95;;;6.50;99.90;;;;;;4990951;28;20045;-72
2024/02/02 03:54:27;;;;;;;2.80;1.10;;;6.40;99.90;;;;;;4989772;28;20406;-72
2024/02/02 03:56:53;;;;;;;5.80;1.13;;;6.50;99.90;;;;;;4990790;28;20053;-72
2024/02/02 03:59:18;;;;;;;5.05;1.55;;;6.50;99.90;;;;;;4976726;28;20037;-72
2024/02/02 04:01:44;;;;;;;8.40;0.93;;;6.50;99.90;;;;;;4974770;28;20473;-72
2024/02/02 04:04:10;;;;;;;4.60;1.30;;;6.50;99.90;;;;;;4997716;28;20069;-72
2024/02/02 04:06:36;;;;;;;1.85;1.23;;;6.50;99.90;;;;;;4990555;28;20050;-72
2024/02/02 04:09:03;;;;;;;5.57;1.00;;;6.50;99.90;;;;;;4989461;28;20584;-72
2024/02/02 04:11:29;;;;;;;2.38;0.95;;;6.50;99.90;;;;;;4990121;28;20042;-72
2024/02/02 04:13:55;;;;;;;3.53;1.23;;;6.50;99.90;;;;;;4970406;28;20057;-72
2024/02/02 04:16:21;;;;;;;6.28;1.25;;;6.50;99.90;;;;;;4991074;28;20177;-72
2024/02/02 04:18:47;;;;;;;4.38;1.05;;;6.50;99.90;;;;;;4988702;28;20117;-72
2024/02/02 04:21:12;;;;;;;15.52;1.20;;;6.50;99.90;;;;;;4986252;28;20116;-73
2024/02/02 04:23:38;;;;;;;2.55;0.93;;;6.50;99.90;;;;;;4989010;28;20090;-72
2024/02/02 04:26:04;;;;;;;1.15;0.93;;;6.60;99.90;;;;;;4977611;28;20524;-72
2024/02/02 04:28:30;;;;;;;4.70;1.50;;;6.60;99.90;;;;;;4972754;28;20050;-72
2024/02/02 04:30:56;;;;;;;8.73;1.83;;;6.60;99.90;;;;;;4994385;28;20053;-73
2024/02/02 04:33:22;;;;;;;7.13;1.50;;;6.60;99.90;;;;;;4989357;28;20057;-72
2024/02/02 04:35:47;;;;;;;2.42;1.10;;;6.60;99.90;;;;;;4988442;28;20030;-71
2024/02/02 04:38:17;;;;;;;2.38;1.15;;;6.50;99.90;;;;;;4972116;28;20524;-72
2024/02/02 04:40:44;;;;;;;5.45;0.82;;;6.60;99.90;;;;;;4978384;28;20129;-72
2024/02/02 04:43:09;;;;;;;4.47;1.33;;;6.60;99.90;;;;;;4992470;28;20037;-72
2024/02/02 04:45:36;;;;;;;2.70;0.80;;;6.60;99.90;;;;;;4983323;28;20466;-72
2024/02/02 04:48:03;;;;;;;14.25;1.63;;;6.60;99.90;;;;;;4978015;28;20037;-72
2024/02/02 04:50:28;;;;;;;14.95;2.10;;;6.60;99.90;;;;;;5009609;28;20104;-73
2024/02/02 04:52:54;;;;;;;2.45;1.08;;;6.60;99.90;;;;;;4994485;28;20049;-72
2024/02/02 04:55:20;;;;;;;6.90;1.10;;;6.60;99.90;;;;;;5003401;28;20121;-72
2024/02/02 04:57:45;;;;;;;3.03;0.82;;;6.60;99.90;;;;;;4991068;28;20046;-73
2024/02/02 05:00:12;;;;;;;3.13;0.82;;;6.60;99.90;;;;;;4993828;28;20409;-72
2024/02/02 05:02:37;;;;;;;1.33;0.63;;;6.60;99.90;;;;;;4992407;28;20037;-72
2024/02/02 05:05:05;;;;;;;8.00;1.98;;;6.60;99.90;;;;;;4984405;28;20053;-72
2024/02/02 05:07:31;;;;;;;9.07;1.73;;;6.60;99.90;;;;;;4991235;28;20496;-72
2024/02/02 05:09:57;;;;;;;4.07;0.82;;;6.60;99.90;;;;;;4990801;28;20521;-72
2024/02/02 05:12:23;;;;;;;3.75;1.33;;;6.60;99.90;;;;;;4983565;28;20119;-72
2024/02/02 05:14:49;;;;;;;5.53;1.33;;;6.60;99.90;;;;;;4986392;28;20042;-72
2024/02/02 05:17:16;;;;;;;7.45;1.27;;;6.60;99.90;;;;;;4989236;28;20042;-72
2024/02/02 05:19:41;;;;;;;5.70;1.45;;;6.60;99.90;;;;;;4990580;28;20132;-72
2024/02/02 05:22:07;;;;;;;5.80;0.77;;;6.60;99.90;;;;;;4999408;28;20478;-72
2024/02/02 05:24:34;;;;;;;3.00;1.15;;;6.60;99.90;;;;;;4985588;28;20077;-73
2024/02/02 05:27:00;;;;;;;4.05;0.80;;;6.60;99.90;;;;;;4976013;28;20074;-72
2024/02/02 05:29:26;;;;;;;3.40;0.68;;;6.50;99.90;;;;;;4973920;28;20081;-71
2024/02/02 05:31:51;;;;;;;2.30;0.95;;;6.60;99.90;;;;;;4992740;28;20417;-72
2024/02/02 05:34:17;;;;;;;0.52;0.32;;;6.50;99.90;;;;;;4992464;28;20065;-72
2024/02/02 05:36:44;;;;;;;7.28;1.90;;;6.50;99.90;;;;;;4999379;28;20113;-72
2024/02/02 05:39:10;;;;;;;3.25;1.27;;;6.50;99.90;;;;;;4993526;28;20149;-72
2024/02/02 05:41:36;;;;;;;7.15;1.02;;;6.50;99.90;;;;;;4990603;28;20112;-73
2024/02/02 05:44:02;;;;;;;6.47;1.10;;;6.50;99.90;;;;;;4992356;28;20122;-72
2024/02/02 05:46:28;;;;;;;7.40;0.70;;;6.50;99.90;;;;;;4985216;28;20459;-72
2024/02/02 05:48:53;;;;;;;2.20;1.10;;;6.50;99.90;;;;;;5002303;28;20124;-72
2024/02/02 05:51:19;;;;;;;3.00;0.80;;;6.50;99.90;;;;;;4985590;28;20041;-72
2024/02/02 05:53:45;;;;;;;5.47;0.98;;;6.50;99.90;;;;;;4992723;28;20049;-72
2024/02/02 05:56:10;;;;;;;4.47;1.33;;;6.40;99.90;;;;;;5000376;28;20041;-72
2024/02/02 05:58:36;;;;;;;1.38;0.43;;;6.50;99.90;;;;;;4992195;28;20034;-72
2024/02/02 06:01:02;;;;;;;2.03;0.55;;;6.50;99.90;;;;;;4991999;28;20502;-72
2024/02/02 06:03:28;;;;;;;5.35;0.93;;;6.40;99.90;;;;;;4974460;28;20054;-72
2024/02/02 06:05:55;;;;;;;6.40;0.93;;;6.40;99.90;;;;;;4980929;28;20085;-73
2024/02/02 06:08:20;;;;;;;1.27;0.50;;;6.40;99.90;;;;;;4989978;28;20107;-73
2024/02/02 06:10:46;;;;;;;7.57;0.68;;;6.40;99.90;;;;;;4973352;28;20042;-72
2024/02/02 06:13:12;;;;;;;1.45;0.60;;;6.40;99.90;;;;;;4990517;28;20050;-72
2024/02/02 06:15:37;;;;;;;2.65;0.80;;;6.30;99.90;;;;;;4989546;28;20042;-72
2024/02/02 06:18:07;;;;;;;2.75;0.82;;;6.30;99.90;;;;;;4995513;28;20033;-72
2024/02/02 06:20:33;;;;;;;10.80;1.23;;;6.30;99.90;;;;;;4989597;28;20376;-72
2024/02/02 06:22:59;;;;;;;11.38;1.00;;;6.30;99.90;;;;;;4979294;28;20045;-72
2024/02/02 06:25:25;;;;;;;6.18;1.08;;;6.40;99.90;;;;;;4987818;28;20125;-71
2024/02/02 06:27:50;;;;;;;9.00;1.00;;;6.40;99.90;;;;;;4990855;28;20176;-71
2024/02/02 06:30:16;;;;;;;4.28;1.20;;;6.40;99.90;;;;;;4988874;28;20192;-72
2024/02/02 06:32:46;;;;;;;5.20;0.73;;;6.40;99.90;;;;;;4988856;28;20048;-72
2024/02/02 06:35:12;;;;;;;4.80;1.15;;;6.40;99.90;;;;;;4991269;28;20686;-73
2024/02/02 06:37:38;;;;;;;2.28;1.00;;;6.30;99.90;;;;;;4972941;28;20034;-73
2024/02/02 06:40:04;;;;;;;3.78;1.20;;;6.30;99.90;;;;;;4989826;28;20033;-73
2024/02/02 06:42:30;;;;;;;3.65;0.75;;;6.30;99.90;;;;;;4989992;28;20052;-72
2024/02/02 06:44:57;;;;;;;6.13;1.33;;;6.30;99.90;;;;;;4988829;28;20246;-73
2024/02/02 06:47:23;;;;;;;9.43;1.73;;;6.30;99.90;;;;;;4987104;28;20053;-74
2024/02/02 06:49:49;;;;;;;1.40;0.65;;;6.30;99.90;;;;;;4989796;28;20041;-73
2024/02/02 06:52:16;;;;;;;5.00;0.57;;;6.30;99.90;;;;;;4989066;28;20048;-73
2024/02/02 06:54:43;;;;;;;3.90;1.73;;;6.30;99.90;;;;;;4977237;28;20130;-73
2024/02/02 06:57:09;;;;;;;5.80;0.60;;;6.20;99.90;;;;;;4987518;28;20286;-74
2024/02/02 06:59:38;;;;;;;12.63;0.77;;;6.20;99.90;;;;;;4986884;28;20038;-73
2024/02/02 07:02:21;;;;;;;3.50;0.90;;;6.20;99.90;;;;;;4973080;28;20046;-74
2024/02/02 07:04:48;;;;;;;3.90;1.02;;;6.20;99.90;;;;;;4973959;28;20145;-71
2024/02/02 07:07:14;;;;;;;2.72;0.95;;;6.20;99.90;;;;;;4986384;28;20060;-72
2024/02/02 07:09:48;;;;;;;1.00;0.30;;;6.10;99.90;;;;;;4988230;28;20077;-72
2024/02/02 07:12:34;;;;;;;6.70;0.68;;;6.10;99.90;;;;;;4969391;28;20037;-72
2024/02/02 07:15:03;;;;;;;4.00;0.77;;;6.10;99.90;;;;;;4989022;28;20060;-72
2024/02/02 07:17:39;;;;;;;3.33;0.68;;;6.10;99.90;;;;;;4991347;28;20097;-72
2024/02/02 07:20:24;;;;;;;1.52;0.65;;;6.10;99.90;;;;;;4972277;28;20058;-73
2024/02/02 07:22:55;;;;;;;2.35;1.02;;;6.10;99.90;;;;;;4987889;28;20053;-72
2024/02/02 07:25:22;;;;;;;0.63;0.30;;;6.10;99.90;;;;;;4990070;28;20057;-71
2024/02/02 07:27:55;;;;;;;8.00;0.85;;;6.10;99.90;;;;;;4974603;28;20042;-72
2024/02/02 07:30:40;;;;;;;5.95;1.05;;;6.10;99.90;;;;;;4981662;28;20049;-71
2024/02/02 07:33:37;;;;;;;3.45;1.08;;;6.20;99.90;;;;;;4989373;28;20045;-72
2024/02/02 07:36:07;;;;;;;5.53;0.90;;;6.20;99.90;;;;;;4990537;28;20077;-72
2024/02/02 07:38:53;;;;;;;2.95;0.98;;;6.20;99.90;;;;;;4990954;28;20042;-71
2024/02/02 07:41:24;;;;;;;2.47;1.13;;;6.20;99.90;;;;;;5005581;28;20077;-71
2024/02/02 07:43:54;;;;;;;1.90;0.60;;;6.30;99.90;;;;;;4965726;28;20487;-72
2024/02/02 07:46:20;;;;;;;9.35;0.90;;;6.30;99.90;;;;;;4986093;28;20042;-72
2024/02/02 07:48:49;;;;;;;10.13;0.57;;;6.30;99.90;;;;;;4983512;28;20497;-72
2024/02/02 07:51:17;;;;;;;1.92;0.40;;;6.30;99.90;;;;;;4983763;28;20046;-72
2024/02/02 07:53:45;;;;;;;1.48;0.70;;;6.30;99.90;;;;;;4991205;28;20049;-71
2024/02/02 07:56:11;;;;;;;6.78;1.48;;;6.40;99.90;;;;;;4972897;28;20104;-71
2024/02/02 07:58:37;;;;;;;3.80;1.23;;;6.40;99.90;;;;;;4985160;28;20026;-72
2024/02/02 08:01:02;;;;;;;4.40;1.27;;;6.50;99.90;;;;;;4983188;28;20064;-72
2024/02/02 08:03:28;;;;;;;4.35;0.88;;;6.80;99.90;;;;;;4988057;28;20057;-72
2024/02/02 08:05:54;;;;;;;4.85;0.82;;;7.10;99.90;;;;;;4998877;28;20718;-72
2024/02/02 08:08:20;;;;;;;6.60;1.15;;;7.20;99.90;;;;;;4969716;28;20042;-71
2024/02/02 08:10:46;;;;;;;2.28;0.40;;;7.20;99.90;;;;;;4989617;28;20173;-72
2024/02/02 08:13:14;;;;;;;0.32;0.20;;;7.10;99.90;;;;;;4986551;28;20046;-72
2024/02/02 08:15:39;;;;;;;2.03;0.52;;;7.00;99.90;;;;;;4973404;28;20073;-71
2024/02/02 08:18:06;;;;;;;2.53;1.08;;;7.00;99.90;;;;;;4992265;28;20038;-71
2024/02/02 08:20:33;;;;;;;6.53;0.57;;;7.00;99.90;;;;;;4976771;28;20070;-71
2024/02/02 08:22:58;;;;;;;6.88;1.13;;;7.00;99.90;;;;;;4976668;28;20069;-72
2024/02/02 08:25:24;;;;;;;2.50;0.98;;;7.00;99.90;;;;;;4994519;28;20469;-72
2024/02/02 08:27:50;;;;;;;7.28;0.98;;;7.10;99.90;;;;;;4988573;28;20077;-72
2024/02/02 08:30:17;;;;;;;1.75;0.85;;;7.10;99.90;;;;;;5002941;28;20045;-71
2024/02/02 08:32:45;;;;;;;2.05;0.45;;;7.10;99.90;;;;;;4993644;28;20049;-72
2024/02/02 08:35:11;;;;;;;2.78;0.80;;;7.10;99.90;;;;;;4978749;28;20038;-71
2024/02/02 08:37:38;;;;;;;3.22;1.05;;;7.10;99.90;;;;;;4991420;28;20034;-72
2024/02/02 08:40:21;;;;;;;2.80;0.73;;;7.10;99.90;;;;;;4991181;28;20108;-72
2024/02/02 08:42:47;;;;;;;3.35;1.45;;;7.20;99.90;;;;;;4974686;28;20402;-72
2024/02/02 08:45:49;;;;;;;4.65;0.50;;;7.20;99.90;;;;;;4993805;28;20053;-72
2024/02/02 08:48:26;;;;;;;3.60;0.68;;;7.20;99.90;;;;;;4991225;28;20152;-72
2024/02/02 08:50:54;;;;;;;2.83;1.27;;;7.20;99.90;;;;;;4992313;28;20457;-72
2024/02/02 08:53:20;;;;;;;3.58;0.85;;;7.20;99.90;;;;;;4977428;28;20038;-71
2024/02/02 08:55:47;;;;;;;6.07;1.27;;;7.30;99.90;;;;;;4991251;28;20518;-72
2024/02/02 08:58:29;;;;;;;3.55;1.02;;;7.30;99.90;;;;;;4991430;28;20137;-72
2024/02/02 09:00:54;;;;;;;7.45;1.27;;;7.30;99.90;;;;;;4990409;28;20375;-71
2024/02/02 09:03:44;;;;;;;10.90;2.33;;;7.30;99.90;;;;;;4988110;28;20056;-71
2024/02/02 09:06:30;;;;;;;13.27;1.70;;;7.30;99.90;;;;;;4993446;28;20409;-71
2024/02/02 09:08:56;;;;;;;4.65;1.42;;;7.40;99.90;;;;;;4990582;28;20069;-72
2024/02/02 09:11:23;;;;;;;0.63;0.40;;;7.40;99.90;;;;;;4992166;28;20046;-72
2024/02/02 09:14:11;;;;;;;6.32;1.13;;;7.50;99.90;;;;;;4975491;28;20049;-72
2024/02/02 09:16:42;;;;;;;2.80;0.63;;;7.50;99.90;;;;;;4991396;28;20498;-72
2024/02/02 09:19:21;;;;;;;6.00;1.08;;;7.50;99.90;;;;;;4973995;28;20062;-73
2024/02/02 09:21:46;;;;;;;7.53;2.50;;;7.60;99.90;;;;;;4993232;28;20041;-72
2024/02/02 09:24:22;;;;;;;8.05;1.35;;;7.60;99.90;;;;;;4992596;28;20048;-73
2024/02/02 09:26:48;;;;;;;2.47;1.50;;;7.60;99.90;;;;;;4974120;28;20038;-72
2024/02/02 09:29:14;;;;;;;5.45;1.17;;;7.60;99.90;;;;;;4991915;28;20052;-73
2024/02/02 09:31:40;;;;;;;7.75;0.98;;;7.60;99.90;;;;;;4997862;28;20038;-72
2024/02/02 09:34:10;;;;;;;3.22;1.50;;;7.60;99.90;;;;;;4991663;28;20034;-72
2024/02/02 09:36:38;;;;;;;12.95;0.98;;;7.70;99.90;;;;;;4971790;28;20034;-73
2024/02/02 09:39:35;;;;;;;3.15;1.13;;;7.70;99.90;;;;;;4991778;28;20049;-73
2024/02/02 09:42:29;;;;;;;3.42;1.00;;;7.80;99.90;;;;;;4994428;28;20049;-72
2024/02/02 09:45:07;;;;;;;4.90;1.70;;;7.80;99.90;;;;;;4990222;28;20037;-72
2024/02/02 09:47:48;;;;;;;5.60;0.57;;;7.90;99.90;;;;;;4991172;28;20465;-72
2024/02/02 09:50:29;;;;;;;3.55;1.05;;;8.00;99.90;;;;;;4990484;28;20076;-73
2024/02/02 09:53:10;;;;;;;6.68;1.17;;;8.00;99.90;;;;;;4990728;28;20049;-73
2024/02/02 09:56:08;;;;;;;5.10;0.65;;;8.00;99.90;;;;;;4991321;28;20574;-73
2024/02/02 09:58:55;;;;;;;1.95;0.50;;;8.10;99.90;;;;;;4982811;28;20104;-73
2024/02/02 10:01:27;;;;;;;4.72;0.75;;;8.20;99.90;;;;;;4990510;28;20239;-72
2024/02/02 10:04:02;;;;;;;7.57;1.85;;;8.20;99.90;;;;;;4977353;28;20513;-72
2024/02/02 10:06:30;;;;;;;;;;;8.30;99.90;;;;;;4991820;28;20125;-73
2024/02/02 10:09:09;;;;;;;6.03;0.60;;;8.30;99.90;;;;;;4990847;28;19921;-72
2024/02/02 10:11:53;;;;;;;6.45;1.05;;;8.40;99.90;;;;;;4990525;28;20042;-73
2024/02/02 10:14:45;;;;;;;4.97;1.30;;;8.40;99.90;;;;;;4986998;28;20041;-73
2024/02/02 10:17:43;;;;;;;3.70;1.15;;;8.50;99.90;;;;;;4974150;28;20045;-73
2024/02/02 10:20:25;;;;;;;4.28;1.08;;;8.60;99.90;;;;;;4988726;28;20046;-72
2024/02/02 10:22:53;;;;;;;5.28;1.00;;;8.60;99.90;;;;;;4989149;28;20034;-73
2024/02/02 10:25:31;;;;;;;3.15;0.82;;;8.60;99.90;;;;;;4992277;28;20124;-72
2024/02/02 10:28:06;;;;;;;3.92;0.68;;;8.70;99.90;;;;;;4990567;28;20041;-72
2024/02/02 10:30:51;;;;;;;3.45;0.55;;;8.60;99.90;;;;;;4988821;28;20050;-72
2024/02/02 10:33:35;;;;;;;9.63;0.65;;;8.60;99.90;;;;;;4988894;28;20478;-73
2024/02/02 10:36:33;;;;;;;1.25;0.60;;;8.70;99.90;;;;;;4989337;28;20038;-72
2024/02/02 10:39:08;;;;;;;9.85;1.80;;;8.70;99.90;;;;;;4990472;28;20100;-72
2024/02/02 10:42:01;;;;;;;5.00;1.10;;;8.70;99.90;;;;;;4979138;28;20452;-72
2024/02/02 10:44:27;;;;;;;2.10;0.88;;;8.80;99.90;;;;;;4988503;28;20638;-72
2024/02/02 10:47:04;;;;;;;0.73;0.73;;;8.90;99.90;;;;;;4990006;28;20069;-72
2024/02/02 10:49:42;;;;;;;4.95;0.75;;;9.00;99.90;;;;;;4974875;28;20074;-72
2024/02/02 10:52:48;;;;;;;3.45;0.47;;;9.10;99.90;;;;;;4992134;28;20046;-72
2024/02/02 10:55:28;;;;;;;4.35;0.93;;;9.20;99.90;;;;;;4993930;28;20057;-72
2024/02/02 10:58:00;;;;;;;5.07;1.52;;;9.30;99.90;;;;;;4985824;28;20461;-72
2024/02/02 11:00:31;;;;;;;7.45;1.20;;;9.50;99.90;;;;;;4979131;28;20133;-72
2024/02/02 11:03:30;;;;;;;5.63;1.17;;;9.50;99.90;;;;;;4975782;28;20057;-72
2024/02/02 11:06:41;;;;;;;4.78;1.40;;;9.60;99.90;;;;;;4972164;28;20081;-72
2024/02/02 11:09:34;;;;;;;5.38;2.10;;;9.70;99.90;;;;;;4943368;28;20074;-73
2024/02/02 11:12:15;;;;;;;2.03;0.70;;;9.80;99.90;;;;;;4975207;28;20060;-73
2024/02/02 11:14:58;;;;;;;7.97;0.90;;;9.80;99.90;;;;;;4963192;28;20046;-72
2024/02/02 11:17:34;;;;;;;8.32;1.30;;;9.80;99.90;;;;;;4976100;28;20045;-73
2024/02/02 11:20:14;;;;;;;3.15;0.73;;;9.90;99.90;;;;;;4987819;28;20120;-73
2024/02/02 11:22:51;;;;;;;5.97;0.60;;;9.90;99.90;;;;;;4990207;28;20034;-73
2024/02/02 11:25:38;;;;;;;4.35;1.23;;;10.00;99.90;;;;;;4989428;28;20054;-73
2024/02/02 11:28:12;;;;;;;3.55;1.10;;;10.00;99.90;;;;;;4987950;28;20045;-74
2024/02/02 11:30:41;;;;;;;;;;;10.00;99.90;;;;;;4986102;28;20489;-74
2024/02/02 11:33:18;;;;;;;6.07;0.95;;;10.10;99.90;;;;;;4977107;28;19928;-74
2024/02/02 11:36:00;;;;;;;7.53;1.25;;;10.20;99.90;;;;;;4969493;28;20045;-74
2024/02/02 11:38:54;;;;;;;4.68;0.77;;;10.30;99.90;;;;;;4971069;28;20116;-74
2024/02/02 11:41:25;;;;;;;2.05;0.65;;;10.30;99.90;;;;;;4986941;28;20096;-74
2024/02/02 11:43:53;;;;;;;6.65;1.48;;;10.40;99.90;;;;;;4972537;28;20083;-73
2024/02/02 11:46:25;;;;;;;5.15;0.60;;;10.50;99.90;;;;;;4971167;28;20077;-74
2024/02/02 11:48:57;;;;;;;6.93;1.27;;;10.40;99.90;;;;;;4984759;28;20117;-72
2024/02/02 11:51:23;;;;;;;1.48;0.60;;;10.40;99.90;;;;;;4994682;28;20042;-73
2024/02/02 11:54:02;;;;;;;2.10;0.50;;;10.30;99.90;;;;;;4976582;28;20429;-73
2024/02/02 11:56:33;;;;;;;1.98;0.80;;;10.30;99.90;;;;;;4994880;28;20505;-73
2024/02/02 11:59:12;;;;;;;3.00;0.95;;;10.40;99.90;;;;;;4993084;28;20084;-73
2024/02/02 12:01:48;;;;;;;1.45;0.60;;;10.40;99.90;;;;;;4981129;28;20584;-74
2024/02/02 12:04:35;;;;;;;3.30;0.70;;;10.40;99.90;;;;;;4980670;28;20046;-73
2024/02/02 12:07:19;;;;;;;5.28;0.70;;;10.30;99.90;;;;;;4995434;28;20042;-72
2024/02/02 12:09:49;;;;;;;9.25;1.60;;;10.40;99.90;;;;;;4996448;28;20489;-73
2024/02/02 12:12:53;;;;;;;4.97;0.77;;;10.40;99.90;;;;;;4995564;28;20045;-73
2024/02/02 12:15:21;;;;;;;4.25;0.50;;;10.30;99.90;;;;;;4975464;28;20096;-73
2024/02/02 12:17:48;;;;;;;4.85;0.88;;;10.30;99.90;;;;;;4993887;28;20042;-73
2024/02/02 12:20:17;;;;;;;1.35;0.70;;;10.20;99.90;;;;;;4974146;28;20045;-73
2024/02/02 12:22:43;;;;;;;6.90;0.77;;;10.20;99.90;;;;;;4994833;28;20049;-73
2024/02/02 12:25:10;;;;;;;5.70;0.82;;;10.10;99.90;;;;;;4990753;28;20060;-73
2024/02/02 12:27:36;;;;;;;1.83;0.45;;;10.10;99.90;;;;;;4988787;28;20071;-73
2024/02/02 12:30:07;;;;;;;5.35;0.98;;;10.00;99.90;;;;;;4990732;28;20041;-74
2024/02/02 12:32:34;;;;;;;8.07;1.48;;;9.90;99.90;;;;;;4991716;28;20041;-72
2024/02/02 12:35:04;;;;;;;5.20;1.13;;;9.90;99.90;;;;;;4993619;28;20092;-72
2024/02/02 12:37:29;;;;;;;4.07;0.77;;;9.90;99.90;;;;;;4992395;28;20054;-73
2024/02/02 12:39:55;;;;;;;6.65;1.63;;;9.80;99.90;;;;;;4967030;28;20038;-73
2024/02/02 12:42:24;;;;;;;1.40;1.13;;;9.70;99.90;;;;;;4990769;28;20042;-74
2024/02/02 12:44:50;;;;;;;0.95;0.70;;;9.70;99.90;;;;;;4991889;28;20033;-74
2024/02/02 12:47:26;;;;;;;4.18;1.60;;;9.70;99.90;;;;;;4975620;28;20531;-73
2024/02/02 12:49:54;;;;;;;5.68;1.15;;;9.60;99.90;;;;;;4981629;28;20045;-74
2024/02/02 12:52:20;;;;;;;9.50;1.70;;;9.60;99.90;;;;;;4966264;28;20042;-73
2024/02/02 12:54:47;;;;;;;1.00;0.80;;;9.50;99.90;;;;;;4990068;28;20049;-75
2024/02/02 12:57:12;;;;;;;1.70;0.45;;;9.50;99.90;;;;;;4989910;28;20518;-74
2024/02/02 12:59:38;;;;;;;4.53;1.58;;;9.50;99.90;;;;;;4996399;28;20036;-75
2024/02/02 13:02:06;;;;;;;2.15;0.95;;;9.40;99.90;;;;;;4990169;28;20477;-76
2024/02/02 13:04:32;;;;;;;5.05;1.38;;;9.40;99.90;;;;;;4989786;28;20513;-74
2024/02/02 13:06:59;;;;;;;11.40;1.65;;;9.50;99.90;;;;;;4974658;28;20080;-74
2024/02/02 13:09:29;;;;;;;3.28;0.85;;;9.40;99.90;;;;;;4990148;28;20501;-75